Time;durP1;ratioP1;P1;durP2;ratioP2;P2;SDS_P1;SDS_P2;PMS_P1;PMS_P2;Temp;Humidity;BMP_temperature;BMP_pressure;BME280_temperature;BME280_humidity;BME280_pressure;Samples;Min_cycle;Max_cycle;Signal;HPM_P1;HPM_P2
2023/10/26 00:12:46;;;;;;;65.30;42.30;;;;;;;7.47;100.00;96860.60;435253;1272;108969;-39
2023/10/26 00:22:49;;;;;;;69.30;41.80;;;;;;;7.47;100.00;96855.55;435364;1253;99334;-40
2023/10/26 00:33:23;;;;;;;;;;;;;;;7.44;100.00;96842.80;423089;1294;638502;-40
2023/10/26 00:43:27;;;;;;;68.00;43.10;;;;;;;7.32;100.00;96836.98;433322;1263;250443;-40
2023/10/26 00:53:32;;;;;;;71.60;43.50;;;;;;;7.27;100.00;96833.63;433920;1263;94650;-40
2023/10/26 01:03:38;;;;;;;59.10;38.50;;;;;;;7.26;100.00;96833.35;433886;1270;107878;-40
2023/10/26 01:24:20;;;;;;;64.00;40.40;;;;;;;7.28;100.00;96811.25;432129;1264;106797;-41
2023/10/26 01:34:24;;;;;;;60.70;38.90;;;;;;;7.36;100.00;96794.42;432233;1264;107585;-40
2023/10/26 01:44:31;;;;;;;60.00;38.10;;;;;;;7.46;100.00;96769.88;432175;1267;95514;-41
2023/10/26 01:54:34;;;;;;;64.30;40.60;;;;;;;7.59;100.00;96756.15;432209;1266;107711;-40
2023/10/26 02:14:41;;;;;;;57.60;38.30;;;;;;;7.82;100.00;96748.48;432206;1262;96178;-40
2023/10/26 02:24:48;;;;;;;60.20;40.00;;;;;;;7.86;100.00;96730.86;432074;1268;107364;-40
2023/10/26 02:34:52;;;;;;;56.30;35.30;;;;;;;7.91;100.00;96721.40;432091;1264;96415;-41
2023/10/26 02:44:57;;;;;;;53.80;32.60;;;;;;;8.00;100.00;96714.41;432283;1267;108137;-40
2023/10/26 02:55:01;;;;;;;49.10;32.00;;;;;;;8.02;100.00;96702.25;432155;1267;107691;-40
2023/10/26 03:05:04;;;;;;;44.90;31.30;;;;;;;7.97;100.00;96698.52;432237;1267;96562;-39
2023/10/26 03:15:09;;;;;;;51.40;30.40;;;;;;;7.93;100.00;96712.45;432223;1264;107850;-41
2023/10/26 03:35:17;;;;;;;45.80;31.50;;;;;;;8.05;100.00;96712.27;432044;1264;108492;-40
2023/10/26 03:45:20;;;;;;;45.80;31.20;;;;;;;8.16;100.00;96720.62;432159;1267;108177;-40
2023/10/26 03:55:24;;;;;;;41.30;28.60;;;;;;;8.21;100.00;96696.19;432066;1264;96878;-39
2023/10/26 04:05:27;;;;;;;43.00;28.80;;;;;;;8.27;100.00;96678.04;432048;1267;107580;-41
2023/10/26 04:15:31;;;;;;;42.30;29.50;;;;;;;8.34;100.00;96667.42;432094;1278;96157;-40
2023/10/26 04:25:35;;;;;;;45.50;28.40;;;;;;;8.39;100.00;96662.96;432331;1263;109191;-40
2023/10/26 04:36:00;;;;;;;42.70;27.70;;;;;;;8.44;100.00;96649.52;432066;1267;107874;-40
2023/10/26 04:46:04;;;;;;;38.20;25.10;;;;;;;8.51;100.00;96634.71;432249;1264;95337;-40
2023/10/26 04:56:10;;;;;;;33.30;22.30;;;;;;;8.65;100.00;96608.78;432179;1267;107644;-41
2023/10/26 05:06:14;;;;;;;31.40;21.40;;;;;;;8.83;100.00;96606.05;432151;1261;95710;-41
2023/10/26 05:16:18;;;;;;;27.30;20.20;;;;;;;9.01;100.00;96591.72;433598;1261;108302;-41
2023/10/26 05:36:25;;;;;;;23.40;17.20;;;;;;;9.21;100.00;96580.66;433800;1257;96145;-40
2023/10/26 05:46:28;;;;;;;28.70;19.40;;;;;;;9.22;100.00;96576.23;433623;1261;108635;-40
2023/10/26 05:56:32;;;;;;;25.50;18.80;;;;;;;9.17;100.00;96577.84;433689;1261;97080;-39
2023/10/26 06:06:35;;;;;;;29.10;21.20;;;;;;;9.15;100.00;96573.95;433747;1260;110001;-40
2023/10/26 06:16:40;;;;;;;29.40;20.90;;;;;;;9.18;100.00;96572.24;433864;1260;108732;-39
2023/10/26 06:26:43;;;;;;;30.00;22.90;;;;;;;9.15;100.00;96563.34;433778;1257;95461;-40
2023/10/26 06:36:47;;;;;;;35.90;25.20;;;;;;;9.21;100.00;96559.79;433719;1261;108416;-41
2023/10/26 06:46:51;;;;;;;34.90;23.70;;;;;;;9.35;100.00;96557.34;433744;1260;95753;-39
2023/10/26 07:06:58;;;;;;;31.30;19.00;;;;;;;9.68;100.00;96555.41;433685;1257;107416;-41
2023/10/26 07:17:02;;;;;;;28.70;16.30;;;;;;;9.96;100.00;96552.00;433687;1257;96696;-40
2023/10/26 07:27:05;;;;;;;23.80;13.30;;;;;;;10.22;100.00;96555.13;433794;1260;108683;-40
2023/10/26 07:47:12;;;;;;;15.20;9.20;;;;;;;10.68;100.00;96561.42;433634;1260;110046;-39
2023/10/26 07:57:16;;;;;;;12.20;8.20;;;;;;;10.81;100.00;96562.66;433789;1261;108609;-41
2023/10/26 08:07:23;;;;;;;13.80;6.70;;;;;;;11.04;100.00;96571.27;433701;1257;96549;-41
2023/10/26 08:17:26;;;;;;;10.70;5.50;;;;;;;11.26;100.00;96569.05;433741;1260;108179;-41
2023/10/26 08:27:29;;;;;;;9.20;5.30;;;;;;;11.41;100.00;96573.95;433645;1257;95271;-41
2023/10/26 09:07:57;;;;;;;6.40;3.50;;;;;;;12.34;100.00;96565.23;433662;1257;107559;-40
2023/10/26 09:18:09;;;;;;;5.70;2.70;;;;;;;12.58;100.00;96568.11;433735;1260;108630;-40
2023/10/26 09:28:13;;;;;;;5.10;2.40;;;;;;;12.97;100.00;96563.14;433617;1261;96141;-41
2023/10/26 09:48:21;;;;;;;3.30;1.90;;;;;;;13.51;100.00;96564.32;433541;1257;108014;-39
2023/10/26 09:58:28;;;;;;;3.00;1.40;;;;;;;13.70;100.00;96560.11;433702;1260;96116;-40
2023/10/26 10:09:03;;;;;;;2.30;1.80;;;;;;;13.93;98.96;96564.58;433700;1257;108417;-40
2023/10/26 10:19:18;;;;;;;5.90;2.40;;;;;;;14.04;98.76;96567.20;433592;1257;108432;-40
2023/10/26 10:29:22;;;;;;;5.60;2.40;;;;;;;13.80;97.88;96561.79;433828;1260;95667;-40
2023/10/26 10:39:26;;;;;;;2.60;2.10;;;;;;;13.87;97.77;96554.73;433746;1261;96063;-41
2023/10/26 10:49:29;;;;;;;2.90;2.30;;;;;;;13.75;96.94;96551.48;433617;1258;108654;-39
2023/10/26 10:59:33;;;;;;;2.00;1.80;;;;;;;13.68;96.76;96551.11;433727;1264;97289;-43
2023/10/26 11:59:55;;;;;;;3.80;1.00;;;;;;;14.96;89.73;96555.48;433772;1260;97037;-40
2023/10/26 12:10:00;;;;;;;2.00;1.20;;;;;;;14.81;87.43;96566.70;433572;1261;108175;-40
2023/10/26 12:20:06;;;;;;;4.50;1.50;;;;;;;14.62;86.96;96567.73;433634;1259;96248;-41
2023/10/26 12:30:11;;;;;;;1.80;1.30;;;;;;;14.33;86.03;96564.92;433602;1259;108450;-41
2023/10/26 12:40:15;;;;;;;5.20;1.60;;;;;;;14.18;86.78;96567.71;433152;1261;365059;-41
2023/10/26 12:50:18;;;;;;;1.80;1.20;;;;;;;14.20;87.29;96574.21;433511;1258;95339;-41
2023/10/26 13:00:21;;;;;;;3.10;1.20;;;;;;;13.78;86.68;96572.66;433500;1261;108578;-43
2023/10/26 13:10:24;;;;;;;1.80;1.10;;;;;;;13.21;87.13;96591.19;433714;1260;96581;-41
2023/10/26 13:30:31;;;;;;;2.30;1.60;;;;;;;12.76;88.74;96600.88;433491;1257;107147;-40
2023/10/26 13:40:36;;;;;;;4.40;3.90;;;;;;;12.76;89.49;96597.95;433658;1258;95315;-43
2023/10/26 13:50:43;;;;;;;14.30;9.00;;;;;;;12.72;90.19;96595.33;433535;1261;95233;-40
2023/10/26 14:00:51;;;;;;;6.50;3.60;;;;;;;12.73;90.61;96600.86;433500;1258;108203;-41
2023/10/26 14:10:55;;;;;;;4.60;3.70;;;;;;;12.64;91.08;96604.38;433712;1259;95936;-41
2023/10/26 14:20:59;;;;;;;9.60;5.60;;;;;;;12.49;91.35;96613.52;433535;1261;108432;-40
2023/10/26 14:31:02;;;;;;;9.90;6.10;;;;;;;12.41;91.64;96620.71;433524;1259;95558;-41
2023/10/26 14:41:06;;;;;;;2.50;1.70;;;;;;;12.25;91.81;96630.45;433586;1258;107800;-40
2023/10/26 14:51:12;;;;;;;6.20;2.20;;;;;;;11.89;91.66;96633.77;433600;1259;108655;-41
2023/10/26 15:01:16;;;;;;;3.40;1.90;;;;;;;11.67;91.51;96635.50;433475;1261;96102;-40
2023/10/26 15:11:19;;;;;;;4.40;3.20;;;;;;;11.48;91.46;96640.28;433643;1261;107669;-41
2023/10/26 15:21:26;;;;;;;110.00;37.30;;;;;;;11.37;91.30;96650.63;433670;1258;97033;-40
2023/10/26 15:31:30;;;;;;;20.10;10.40;;;;;;;11.20;91.24;96662.15;433420;1261;109059;-40
2023/10/26 15:51:39;;;;;;;7.60;4.30;;;;;;;11.08;91.49;96680.51;433561;1261;95911;-41
2023/10/26 16:01:42;;;;;;;12.70;6.20;;;;;;;11.04;91.66;96696.52;433449;1263;108834;-41
2023/10/26 16:11:45;;;;;;;15.70;9.20;;;;;;;11.04;91.85;96700.44;433440;1259;95671;-40
2023/10/26 16:21:48;;;;;;;13.90;7.70;;;;;;;11.00;92.11;96703.34;433445;1263;109210;-42
2023/10/26 16:51:58;;;;;;;11.90;7.40;;;;;;;10.68;92.10;96692.36;433496;1258;108816;-41
2023/10/26 17:12:08;;;;;;;18.00;9.80;;;;;;;10.34;92.27;96683.95;433578;1261;95832;-41
2023/10/26 17:32:16;;;;;;;26.30;12.70;;;;;;;10.21;92.35;96682.04;433697;1261;108566;-41
2023/10/26 17:52:23;;;;;;;15.50;9.70;;;;;;;10.08;92.28;96678.59;433399;1261;109407;-40
2023/10/26 18:02:26;;;;;;;22.20;12.30;;;;;;;9.92;92.45;96673.92;433515;1261;97890;-40
2023/10/26 18:22:33;;;;;;;25.30;14.00;;;;;;;9.43;92.35;96687.09;433530;1263;108421;-40
2023/10/26 18:32:35;;;;;;;37.50;16.00;;;;;;;9.30;92.54;96690.73;433653;1261;96994;-40
2023/10/26 18:52:41;;;;;;;29.80;17.20;;;;;;;9.09;92.81;96691.92;433526;1262;96650;-40
2023/10/26 19:02:45;;;;;;;35.50;23.20;;;;;;;8.91;92.92;96699.09;433792;1257;111556;-41
2023/10/26 19:12:51;;;;;;;21.90;13.90;;;;;;;8.78;92.93;96703.84;433614;1271;97897;-41
2023/10/26 19:22:55;;;;;;;21.70;13.10;;;;;;;8.71;92.93;96693.98;433571;1257;97880;-41
2023/10/26 19:33:03;;;;;;;19.00;11.20;;;;;;;8.53;92.68;96703.52;433625;1264;109319;-40
2023/10/26 19:43:08;;;;;;;31.10;15.70;;;;;;;8.48;93.35;96694.87;433667;1261;109264;-40
2023/10/26 19:53:12;;;;;;;28.00;17.90;;;;;;;8.47;93.51;96687.72;433707;1260;98183;-41
2023/10/26 20:03:16;;;;;;;27.10;17.20;;;;;;;8.31;93.16;96690.00;433375;1257;98012;-40
2023/10/26 20:23:24;;;;;;;48.90;29.60;;;;;;;8.13;93.42;96689.61;433600;1271;97890;-40
2023/10/26 20:33:27;;;;;;;48.80;28.10;;;;;;;8.31;94.04;96692.79;433636;1263;108579;-41
2023/10/26 20:43:31;;;;;;;61.30;38.40;;;;;;;8.50;94.51;96701.83;433754;1261;97897;-41
2023/10/26 21:03:37;;;;;;;51.60;31.20;;;;;;;8.79;94.62;96703.30;433721;1260;107483;-40
2023/10/26 21:13:41;;;;;;;40.90;25.80;;;;;;;8.86;94.54;96709.11;433622;1261;98014;-41
2023/10/26 21:23:45;;;;;;;42.30;26.30;;;;;;;8.97;94.73;96709.98;433711;1261;109549;-41
2023/10/26 21:33:48;;;;;;;37.90;25.20;;;;;;;9.11;94.94;96708.43;433625;1260;96592;-41
2023/10/26 21:43:52;;;;;;;40.00;24.70;;;;;;;9.20;95.03;96692.95;433782;1261;110479;-41
2023/10/26 21:53:56;;;;;;;44.00;26.20;;;;;;;9.13;94.79;96695.66;433648;1258;97931;-41
2023/10/26 22:14:24;;;;;;;52.80;31.50;;;;;;;8.98;94.88;96696.15;433587;1260;111495;-41
2023/10/26 22:34:31;;;;;;;35.30;21.10;;;;;;;9.13;95.31;96682.69;433826;1260;96589;-40
2023/10/26 22:44:35;;;;;;;36.70;18.80;;;;;;;9.19;95.20;96694.70;433652;1260;107411;-40
2023/10/26 22:54:38;;;;;;;37.30;19.50;;;;;;;9.22;95.19;96680.40;433577;1260;97890;-41
2023/10/26 23:04:42;;;;;;;36.80;20.20;;;;;;;9.26;95.54;96672.48;433622;1261;110399;-40
2023/10/26 23:14:46;;;;;;;30.10;17.70;;;;;;;9.21;95.49;96669.37;433872;1260;108757;-40
2023/10/26 23:24:50;;;;;;;29.10;16.40;;;;;;;9.24;95.55;96660.52;433567;1261;96577;-41
2023/10/26 23:34:54;;;;;;;23.70;15.30;;;;;;;9.38;95.64;96651.71;433560;1262;108172;-40
2023/10/26 23:44:58;;;;;;;18.20;12.60;;;;;;;9.54;95.66;96637.45;433778;1257;97357;-41
2023/10/26 23:55:01;;;;;;;20.80;15.10;;;;;;;9.66;95.75;96635.96;433846;1257;110761;-40
